This is the latest recevied weather packets stored in our database for station/object LA1HSA-13. If no packets are shown the sender has not sent any weather packets the latest 1 day(s).
| Time | Temp. | Humidity | Pressure | Rain* | Wind** | Luminosity | Snow |
|---|---|---|---|---|---|---|---|
| 1778004603 | 8.33° C | 34% | 1010.1 hPa | 0 mm | 0.89 m/s, 56° | - | - |
| 1778004003 | 8.89° C | 33% | 1010.1 hPa | 0 mm | 0.89 m/s, 43° | - | - |
| 1778003403 | 8.89° C | 32% | 1010 hPa | 0 mm | 1.79 m/s, 50° | - | - |
| 1778002803 | 8.89° C | 32% | 1010 hPa | 0 mm | 1.79 m/s, 34° | - | - |
| 1778002203 | 9.44° C | 31% | 1010 hPa | 0 mm | 1.79 m/s, 34° | - | - |
| 1778001604 | 9.44° C | 31% | 1009.8 hPa | 0 mm | 0.89 m/s, 47° | - | - |
| 1778001003 | 9.44° C | 31% | 1009.9 hPa | 0 mm | 1.79 m/s, 59° | - | - |
| 1778000403 | 9.44° C | 33% | 1009.8 hPa | 0 mm | 1.79 m/s, 58° | - | - |
| 1777999803 | 9.44° C | 33% | 1010.1 hPa | 0 mm | 1.79 m/s, 57° | - | - |
| 1777999203 | 8.33° C | 33% | 1010.1 hPa | 0 mm | 1.79 m/s, 63° | - | - |
| 1777998603 | 7.78° C | 36% | 1009.9 hPa | 0 mm | 0.89 m/s, 61° | - | - |
| 1777998003 | 7.78° C | 36% | 1009.9 hPa | 0 mm | 1.79 m/s, 70° | - | - |
| 1777997403 | 7.78° C | 36% | 1010.1 hPa | 0 mm | 2.24 m/s, 72° | - | - |
| 1777996803 | 7.78° C | 35% | 1009.7 hPa | 0 mm | 2.24 m/s, 81° | - | - |
| 1777996203 | 10° C | 33% | 1009.8 hPa | 0 mm | 0.89 m/s, 37° | - | - |
| 1777995603 | 9.44° C | 26% | 1009.8 hPa | 0 mm | 3.13 m/s, 55° | - | - |
| 1777995003 | 10.56° C | 26% | 1009.7 hPa | 0 mm | 2.68 m/s, 29° | - | - |
| 1777994403 | 9.44° C | 29% | 1009.7 hPa | 0 mm | 1.79 m/s, 34° | - | - |
| 1777993803 | 10° C | 26% | 1009.5 hPa | 0 mm | 3.13 m/s, 19° | - | - |
| 1777993203 | 10.56° C | 26% | 1009.3 hPa | 0 mm | 2.68 m/s, 40° | - | - |
| 1777992603 | 10.56° C | 27% | 1009.6 hPa | 0 mm | 2.24 m/s, 48° | - | - |
| 1777992003 | 9.44° C | 27% | 1009.5 hPa | 0 mm | 1.79 m/s, 55° | - | - |
| 1777991403 | 8.89° C | 28% | 1009.3 hPa | 0 mm | 2.24 m/s, 40° | - | - |
| 1777990803 | 10.56° C | 27% | 1009.5 hPa | 0 mm | 1.79 m/s, 28° | - | - |
| 1777990203 | 9.44° C | 29% | 1009.5 hPa | 0 mm | 1.79 m/s, 32° | - | - |
* Rain latest hour (hover to see other rain measurements)
** Current wind speed in m/s (hover to see current wind gust speed)